Time;durP1;ratioP1;P1;durP2;ratioP2;P2;SDS_P1;SDS_P2;PMS_P1;PMS_P2;Temp;Humidity;BMP_temperature;BMP_pressure;BME280_temperature;BME280_humidity;BME280_pressure;Samples;Min_cycle;Max_cycle;Signal;HPM_P1;HPM_P2
2023/12/10 00:00:21;;;;;;;13.77;4.07;;;13.50;91.00;;;;;;5096303;28;20530;-64
2023/12/10 00:02:48;;;;;;;9.97;3.50;;;13.50;91.00;;;;;;5101536;28;20541;-64
2023/12/10 00:05:16;;;;;;;14.70;3.93;;;13.50;91.00;;;;;;5099904;28;20513;-65
2023/12/10 00:07:43;;;;;;;16.47;4.23;;;13.50;91.20;;;;;;5089842;28;20859;-65
2023/12/10 00:10:10;;;;;;;16.37;3.70;;;13.50;91.20;;;;;;5098488;28;20511;-64
2023/12/10 00:12:37;;;;;;;16.77;3.80;;;13.40;91.20;;;;;;5079860;28;20637;-64
2023/12/10 00:15:05;;;;;;;10.47;3.10;;;13.40;91.00;;;;;;5087822;28;20466;-65
2023/12/10 00:17:32;;;;;;;16.90;3.60;;;13.40;90.80;;;;;;5082182;28;20443;-64
2023/12/10 00:19:59;;;;;;;17.30;3.70;;;13.40;90.90;;;;;;5086671;28;20529;-65
2023/12/10 00:22:27;;;;;;;16.97;3.73;;;13.40;90.70;;;;;;5089067;28;20474;-64
2023/12/10 00:24:54;;;;;;;15.53;4.63;;;13.40;90.40;;;;;;5089218;28;20513;-65
2023/12/10 00:27:21;;;;;;;15.27;3.57;;;13.40;90.70;;;;;;5085461;28;20529;-64
2023/12/10 00:29:48;;;;;;;14.73;3.83;;;13.50;90.30;;;;;;5039998;28;20494;-64
2023/12/10 00:32:15;;;;;;;19.03;4.57;;;13.30;90.10;;;;;;5091205;28;20515;-65
2023/12/10 00:34:42;;;;;;;21.07;3.77;;;13.40;90.10;;;;;;5079876;28;20994;-64
2023/12/10 00:37:10;;;;;;;14.97;3.73;;;13.30;90.00;;;;;;5072357;28;20551;-64
2023/12/10 00:39:39;;;;;;;13.80;4.00;;;13.40;90.00;;;;;;5089163;28;20486;-64
2023/12/10 00:42:06;;;;;;;13.37;4.00;;;13.30;90.00;;;;;;5072554;28;20511;-65
2023/12/10 00:44:34;;;;;;;18.10;6.10;;;13.40;89.50;;;;;;5048903;28;20535;-64
2023/12/10 00:47:01;;;;;;;14.47;4.07;;;13.40;88.80;;;;;;5075029;28;20523;-65
2023/12/10 00:49:28;;;;;;;14.77;4.50;;;13.30;89.20;;;;;;5076972;28;20865;-64
2023/12/10 00:51:54;;;;;;;18.13;4.83;;;13.40;88.60;;;;;;5049755;28;20563;-64
2023/12/10 00:54:21;;;;;;;18.97;4.43;;;13.40;88.40;;;;;;5091258;28;20522;-64
2023/12/10 00:56:50;;;;;;;17.17;4.63;;;13.40;88.10;;;;;;5089442;28;20913;-64
2023/12/10 00:59:16;;;;;;;15.07;3.83;;;13.40;87.80;;;;;;5091132;28;20531;-65
2023/12/10 01:01:44;;;;;;;15.80;4.63;;;13.40;87.70;;;;;;5038779;28;20474;-64
2023/12/10 01:04:11;;;;;;;15.00;4.30;;;13.30;87.70;;;;;;5079089;28;20535;-65
2023/12/10 01:06:40;;;;;;;20.10;5.07;;;13.50;87.90;;;;;;5083556;28;20958;-65
2023/12/10 01:09:08;;;;;;;17.70;4.80;;;13.40;86.90;;;;;;5090571;28;20519;-64
2023/12/10 01:11:36;;;;;;;22.10;5.17;;;13.40;86.90;;;;;;5086447;28;20884;-63
2023/12/10 01:14:04;;;;;;;24.17;5.13;;;13.50;86.80;;;;;;5083212;28;20558;-65
2023/12/10 01:16:31;;;;;;;18.47;4.90;;;13.40;86.10;;;;;;5076780;28;20931;-64
2023/12/10 01:18:58;;;;;;;24.27;5.03;;;13.40;86.10;;;;;;5074058;28;20486;-65
2023/12/10 01:21:25;;;;;;;19.93;5.63;;;13.40;86.50;;;;;;5028998;28;20566;-65
2023/12/10 01:23:55;;;;;;;13.97;3.97;;;13.40;86.90;;;;;;5084746;28;20879;-65
2023/12/10 01:26:22;;;;;;;18.13;4.37;;;13.40;86.10;;;;;;5087250;28;20842;-64
2023/12/10 01:28:49;;;;;;;15.43;4.80;;;13.50;86.40;;;;;;5081966;28;20553;-65
2023/12/10 01:31:18;;;;;;;17.27;5.07;;;13.50;86.00;;;;;;5083602;28;20529;-65
2023/12/10 01:33:45;;;;;;;16.37;4.23;;;13.40;85.60;;;;;;5089632;28;21139;-65
2023/12/10 01:36:22;;;;;;;18.77;5.00;;;13.40;85.40;;;;;;5091239;28;20444;-65
2023/12/10 01:38:49;;;;;;;22.67;5.80;;;13.40;85.30;;;;;;5080131;28;20447;-64
2023/12/10 01:41:16;;;;;;;15.70;4.27;;;13.30;85.50;;;;;;5086258;28;20569;-64
2023/12/10 01:43:43;;;;;;;16.40;5.10;;;13.30;85.80;;;;;;5076800;28;20556;-65
2023/12/10 01:46:10;;;;;;;17.50;5.30;;;13.30;85.20;;;;;;5088018;28;20470;-64
2023/12/10 01:48:40;;;;;;;14.10;4.10;;;13.30;85.40;;;;;;5091162;28;20461;-64
2023/12/10 01:51:08;;;;;;;19.53;4.97;;;13.30;85.90;;;;;;5091219;28;20564;-64
2023/12/10 01:53:35;;;;;;;15.00;4.70;;;13.30;86.30;;;;;;5084948;28;20490;-64
2023/12/10 01:56:02;;;;;;;8.40;2.63;;;13.10;86.90;;;;;;5087756;28;20555;-64
2023/12/10 01:58:30;;;;;;;7.47;3.03;;;12.80;87.40;;;;;;5074880;28;20449;-65
2023/12/10 02:00:57;;;;;;;9.67;2.90;;;12.60;88.20;;;;;;5075511;28;20484;-65
2023/12/10 02:03:24;;;;;;;11.03;3.77;;;12.60;88.50;;;;;;5085096;28;20474;-64
2023/12/10 02:05:52;;;;;;;7.63;2.90;;;12.50;89.40;;;;;;5087056;28;20515;-65
2023/12/10 02:08:20;;;;;;;10.93;3.27;;;12.50;89.70;;;;;;5085731;28;20882;-64
2023/12/10 02:10:46;;;;;;;6.83;2.47;;;12.60;89.60;;;;;;5090524;28;20449;-65
2023/12/10 02:13:13;;;;;;;9.23;2.30;;;12.50;89.10;;;;;;5081158;28;20546;-64
2023/12/10 02:15:41;;;;;;;9.73;2.43;;;12.40;89.20;;;;;;5079629;28;20895;-64
2023/12/10 02:18:08;;;;;;;7.40;2.40;;;12.30;88.70;;;;;;5090683;28;20454;-64
2023/12/10 02:20:34;;;;;;;10.17;2.40;;;12.20;88.80;;;;;;5089118;28;20538;-64
2023/12/10 02:23:08;;;;;;;7.90;2.20;;;12.10;88.90;;;;;;5085903;28;20523;-65
2023/12/10 02:25:37;;;;;;;8.73;2.57;;;12.10;89.40;;;;;;5081044;28;20999;-65
2023/12/10 02:28:05;;;;;;;8.43;2.90;;;12.10;89.60;;;;;;5078620;28;20484;-64
2023/12/10 02:30:33;;;;;;;11.63;2.70;;;12.10;89.80;;;;;;5089124;28;20554;-64
2023/12/10 02:33:00;;;;;;;5.97;2.63;;;12.20;90.00;;;;;;5084368;28;20439;-64
2023/12/10 02:35:27;;;;;;;9.57;2.90;;;12.20;90.10;;;;;;5089253;28;20525;-64
2023/12/10 02:37:54;;;;;;;12.77;3.43;;;12.20;90.40;;;;;;5087970;28;21154;-64
2023/12/10 02:40:21;;;;;;;11.57;3.50;;;12.20;90.40;;;;;;5088615;28;20500;-64
2023/12/10 02:42:50;;;;;;;12.33;2.93;;;12.30;90.20;;;;;;5075524;28;21020;-64
2023/12/10 02:45:19;;;;;;;12.93;3.53;;;12.30;90.30;;;;;;5075248;28;20458;-64
2023/12/10 02:47:46;;;;;;;13.33;3.00;;;12.30;90.60;;;;;;5084285;28;20474;-64
2023/12/10 02:50:12;;;;;;;17.43;4.33;;;12.30;90.50;;;;;;5091930;28;20513;-64
2023/12/10 02:52:40;;;;;;;19.67;4.17;;;12.30;90.30;;;;;;5090035;28;20996;-64
2023/12/10 02:55:09;;;;;;;10.77;2.97;;;12.40;90.30;;;;;;5079278;28;20464;-65
2023/12/10 02:57:36;;;;;;;14.47;3.67;;;12.40;90.30;;;;;;5094146;28;20449;-64
2023/12/10 03:00:07;;;;;;;11.57;3.70;;;12.50;90.20;;;;;;5076730;28;20531;-64
2023/12/10 03:02:34;;;;;;;12.00;3.77;;;12.50;90.20;;;;;;5081733;28;20493;-64
2023/12/10 03:05:01;;;;;;;15.10;3.77;;;12.60;90.00;;;;;;5080715;28;20470;-64
2023/12/10 03:07:28;;;;;;;17.53;4.87;;;12.60;90.00;;;;;;5084335;28;20532;-64
2023/12/10 03:09:55;;;;;;;12.20;3.67;;;12.60;89.80;;;;;;5094047;28;21005;-65
2023/12/10 03:12:22;;;;;;;14.30;4.30;;;12.70;89.60;;;;;;5092450;28;20522;-65
2023/12/10 03:14:49;;;;;;;18.23;3.93;;;12.70;89.40;;;;;;5092013;28;20883;-65
2023/12/10 03:17:17;;;;;;;11.70;4.27;;;12.70;88.80;;;;;;5094172;28;20517;-65
2023/12/10 03:19:45;;;;;;;14.70;3.87;;;12.80;88.60;;;;;;5089578;28;20546;-65
2023/12/10 03:22:12;;;;;;;11.07;3.33;;;12.70;88.30;;;;;;5093260;28;20584;-63
2023/12/10 03:24:40;;;;;;;13.87;3.63;;;12.70;88.20;;;;;;5081570;28;20534;-64
2023/12/10 03:27:07;;;;;;;14.70;4.00;;;12.80;88.10;;;;;;5085199;28;20554;-64
2023/12/10 03:29:34;;;;;;;13.47;3.87;;;12.80;87.00;;;;;;5077381;28;20534;-64
2023/12/10 03:32:01;;;;;;;15.13;4.20;;;12.90;87.20;;;;;;5089267;28;20474;-65
2023/12/10 03:34:29;;;;;;;14.37;3.60;;;12.90;86.90;;;;;;5080925;28;21310;-65
2023/12/10 03:36:56;;;;;;;15.50;4.10;;;13.00;86.60;;;;;;5084235;28;20433;-65
2023/12/10 03:39:23;;;;;;;17.30;5.63;;;13.00;85.30;;;;;;5072710;28;20523;-64
2023/12/10 03:41:50;;;;;;;15.70;4.53;;;13.00;85.70;;;;;;5077954;28;20578;-64
2023/12/10 03:44:17;;;;;;;13.40;3.87;;;13.00;85.70;;;;;;5088513;28;20541;-65
2023/12/10 03:46:44;;;;;;;14.63;3.67;;;13.00;85.10;;;;;;5093556;28;20542;-65
2023/12/10 03:49:11;;;;;;;10.60;3.23;;;13.00;84.70;;;;;;5037225;28;20467;-64
2023/12/10 03:51:40;;;;;;;19.67;4.00;;;13.00;84.50;;;;;;5074564;28;20983;-64
2023/12/10 03:54:07;;;;;;;17.97;3.83;;;13.00;84.50;;;;;;5079160;28;20974;-64
2023/12/10 03:56:33;;;;;;;13.73;3.33;;;13.10;84.50;;;;;;5086323;28;20522;-64
2023/12/10 03:59:00;;;;;;;15.03;3.90;;;13.10;83.50;;;;;;5095652;28;21005;-65
2023/12/10 04:01:27;;;;;;;12.20;4.23;;;13.00;83.50;;;;;;5089297;28;20482;-64
2023/12/10 04:03:55;;;;;;;13.97;3.77;;;13.10;83.40;;;;;;5083853;28;20877;-64
2023/12/10 04:06:22;;;;;;;15.73;3.70;;;13.00;83.00;;;;;;5092516;28;20443;-64
2023/12/10 04:08:50;;;;;;;13.70;3.83;;;13.00;82.70;;;;;;5088679;28;20516;-64
2023/12/10 04:11:23;;;;;;;11.13;3.77;;;12.90;82.80;;;;;;5077128;28;20534;-64
2023/12/10 04:13:50;;;;;;;11.97;3.53;;;13.00;82.30;;;;;;5083801;28;20526;-64
2023/12/10 04:16:25;;;;;;;17.17;3.70;;;13.00;82.90;;;;;;5079961;28;20567;-64
2023/12/10 04:18:51;;;;;;;12.67;3.40;;;13.10;82.50;;;;;;5091055;28;20529;-64
2023/12/10 04:21:20;;;;;;;10.63;3.57;;;13.00;81.60;;;;;;5092431;28;20443;-64
2023/12/10 04:23:47;;;;;;;15.87;4.00;;;13.00;82.40;;;;;;5073770;28;20459;-64
2023/12/10 04:26:16;;;;;;;10.90;4.30;;;12.90;81.90;;;;;;5079371;28;20949;-65
2023/12/10 04:28:43;;;;;;;10.33;3.10;;;12.80;81.90;;;;;;5089809;28;20526;-64
2023/12/10 04:31:10;;;;;;;13.63;3.23;;;12.90;82.20;;;;;;5086360;28;20442;-64
2023/12/10 04:33:37;;;;;;;13.53;3.67;;;12.80;82.20;;;;;;5081960;28;20447;-64
2023/12/10 04:36:05;;;;;;;12.33;3.20;;;12.90;82.20;;;;;;5072873;28;20554;-65
2023/12/10 04:38:33;;;;;;;13.73;3.60;;;12.80;81.50;;;;;;5086620;28;20521;-64
2023/12/10 04:41:00;;;;;;;13.50;3.23;;;13.00;82.20;;;;;;5091267;28;21024;-64
2023/12/10 04:43:28;;;;;;;13.67;3.57;;;13.00;81.40;;;;;;5091390;28;21053;-64
2023/12/10 04:45:55;;;;;;;12.73;3.07;;;13.10;81.60;;;;;;5091737;28;20442;-64
2023/12/10 04:48:22;;;;;;;13.50;3.53;;;13.10;81.10;;;;;;5074383;28;20783;-64
2023/12/10 04:50:49;;;;;;;12.83;3.07;;;13.10;80.30;;;;;;5091340;28;20546;-63
2023/12/10 04:53:16;;;;;;;12.80;3.83;;;13.10;80.80;;;;;;5091426;28;20450;-64
2023/12/10 04:55:43;;;;;;;12.33;3.20;;;13.10;80.80;;;;;;5087069;28;20964;-64
2023/12/10 04:58:11;;;;;;;9.23;3.13;;;13.10;80.50;;;;;;5082839;28;21019;-65
2023/12/10 05:00:41;;;;;;;14.47;3.13;;;13.10;80.00;;;;;;5083746;28;20447;-64
2023/12/10 05:03:08;;;;;;;12.63;4.03;;;13.00;80.20;;;;;;5087882;28;20986;-64
2023/12/10 05:05:35;;;;;;;15.37;4.23;;;13.10;80.60;;;;;;5089749;28;20545;-63
2023/12/10 05:08:02;;;;;;;10.00;3.23;;;13.10;80.40;;;;;;5083587;28;20922;-65
2023/12/10 05:10:29;;;;;;;13.43;3.70;;;13.00;80.10;;;;;;5080842;28;20450;-65
2023/12/10 05:12:56;;;;;;;11.67;3.60;;;13.10;80.00;;;;;;5034785;28;20509;-65
2023/12/10 05:15:23;;;;;;;10.37;3.03;;;13.10;79.00;;;;;;5084453;28;20438;-65
2023/12/10 05:17:51;;;;;;;14.20;3.20;;;13.00;79.30;;;;;;5076911;28;20531;-65
2023/12/10 05:20:18;;;;;;;14.07;3.30;;;13.10;79.60;;;;;;5071734;28;20865;-65
2023/12/10 05:22:45;;;;;;;11.10;3.43;;;13.10;79.80;;;;;;5074042;28;20570;-65
2023/12/10 05:25:12;;;;;;;8.50;2.90;;;13.10;79.20;;;;;;5082263;28;20525;-65
2023/12/10 05:27:39;;;;;;;11.90;3.47;;;13.10;79.20;;;;;;5090184;28;20534;-65
2023/12/10 05:30:07;;;;;;;16.17;3.10;;;13.10;78.70;;;;;;5097416;28;20528;-64
2023/12/10 05:32:34;;;;;;;8.00;2.80;;;13.20;79.20;;;;;;5094872;28;20542;-65
2023/12/10 05:35:04;;;;;;;17.30;3.63;;;13.20;79.00;;;;;;5071848;28;20785;-65
2023/12/10 05:37:31;;;;;;;13.97;3.40;;;13.10;78.30;;;;;;5080358;28;20442;-63
2023/12/10 05:39:58;;;;;;;13.13;3.53;;;13.10;79.00;;;;;;5086054;28;20538;-64
2023/12/10 05:42:25;;;;;;;11.30;3.20;;;13.00;78.70;;;;;;5075052;28;20573;-64
2023/12/10 05:44:53;;;;;;;12.13;3.40;;;13.10;78.80;;;;;;5090663;28;20498;-64
2023/12/10 05:47:20;;;;;;;12.50;3.07;;;13.10;78.60;;;;;;5091324;28;20442;-64
2023/12/10 05:49:47;;;;;;;9.20;3.03;;;13.00;78.50;;;;;;5088314;28;20442;-64
2023/12/10 05:52:15;;;;;;;15.67;3.50;;;13.00;79.10;;;;;;5071027;28;20531;-65
2023/12/10 05:54:42;;;;;;;16.30;3.23;;;13.00;78.70;;;;;;5079364;28;20450;-64
2023/12/10 05:57:09;;;;;;;7.53;3.03;;;13.00;78.20;;;;;;5084395;28;20498;-65
2023/12/10 05:59:37;;;;;;;14.23;3.93;;;13.10;78.40;;;;;;5074729;28;20447;-64
2023/12/10 06:02:04;;;;;;;8.33;2.77;;;13.10;78.30;;;;;;5080810;28;20508;-65
2023/12/10 06:04:31;;;;;;;9.27;3.30;;;13.10;78.20;;;;;;5083134;28;20479;-65
2023/12/10 06:06:58;;;;;;;11.23;2.97;;;13.10;78.00;;;;;;5070965;28;20995;-64
2023/12/10 06:09:26;;;;;;;12.00;3.20;;;13.10;78.30;;;;;;5081017;28;20521;-65
2023/12/10 06:11:54;;;;;;;14.10;3.63;;;13.00;77.80;;;;;;5074218;28;20527;-65
2023/12/10 06:14:21;;;;;;;9.20;2.83;;;13.00;78.20;;;;;;5077851;28;20443;-63
2023/12/10 06:16:48;;;;;;;7.13;3.03;;;13.10;77.90;;;;;;5090564;28;20530;-65
2023/12/10 06:19:14;;;;;;;14.00;3.60;;;12.90;77.60;;;;;;5089553;28;20485;-65
2023/12/10 06:21:41;;;;;;;13.90;3.47;;;12.80;77.50;;;;;;5082196;28;20862;-64
2023/12/10 06:24:08;;;;;;;9.43;3.10;;;12.80;78.30;;;;;;5072560;28;20573;-64
2023/12/10 06:26:36;;;;;;;11.67;3.67;;;12.80;78.00;;;;;;5087942;28;20438;-65
2023/12/10 06:29:04;;;;;;;10.40;3.13;;;12.80;77.70;;;;;;5093404;28;20512;-64
2023/12/10 06:31:32;;;;;;;13.17;3.70;;;12.80;77.50;;;;;;5084980;28;20451;-63
2023/12/10 06:33:59;;;;;;;13.20;2.90;;;12.80;78.20;;;;;;5029429;28;20578;-63
2023/12/10 06:36:26;;;;;;;11.17;3.17;;;12.80;77.70;;;;;;5084545;28;20439;-64
2023/12/10 06:38:52;;;;;;;12.03;2.73;;;12.80;78.20;;;;;;5078386;28;20530;-65
2023/12/10 06:41:19;;;;;;;12.50;3.30;;;12.80;78.10;;;;;;5082131;28;20467;-65
2023/12/10 06:43:47;;;;;;;18.87;3.43;;;12.80;77.90;;;;;;5077309;28;20570;-65
2023/12/10 06:46:17;;;;;;;9.80;2.97;;;12.70;78.20;;;;;;5081246;28;20549;-65
2023/12/10 06:48:44;;;;;;;12.67;2.90;;;12.70;78.80;;;;;;5089154;28;20457;-65
2023/12/10 06:51:12;;;;;;;10.93;2.90;;;12.70;78.60;;;;;;5097732;28;20978;-66
2023/12/10 06:53:41;;;;;;;11.50;3.37;;;12.70;78.60;;;;;;5096792;28;20545;-65
2023/12/10 06:56:09;;;;;;;9.13;3.23;;;12.70;78.80;;;;;;5097170;28;20477;-64
2023/12/10 06:58:36;;;;;;;13.93;3.63;;;12.70;78.60;;;;;;5098160;28;20466;-65
2023/12/10 07:01:05;;;;;;;14.77;3.47;;;12.70;78.80;;;;;;5098298;28;20477;-65
2023/12/10 07:03:32;;;;;;;12.77;3.00;;;12.70;78.60;;;;;;5096730;28;20480;-65
2023/12/10 07:06:03;;;;;;;12.00;3.43;;;12.60;78.20;;;;;;5084654;28;20549;-65
2023/12/10 07:08:30;;;;;;;10.43;3.33;;;12.60;78.60;;;;;;5078599;28;20483;-65
2023/12/10 07:10:59;;;;;;;16.20;3.50;;;12.60;78.60;;;;;;5086012;28;20438;-65
2023/12/10 07:13:26;;;;;;;11.97;3.73;;;12.60;78.80;;;;;;5094346;28;20450;-64
2023/12/10 07:15:53;;;;;;;11.27;2.93;;;12.60;78.90;;;;;;5078747;28;20439;-65
2023/12/10 07:18:22;;;;;;;10.43;4.00;;;12.50;78.90;;;;;;5078065;28;20470;-64
2023/12/10 07:20:49;;;;;;;11.73;3.70;;;12.60;79.00;;;;;;5091540;28;20533;-64
2023/12/10 07:23:16;;;;;;;13.00;3.97;;;12.60;78.80;;;;;;5080372;28;21360;-64
2023/12/10 07:25:43;;;;;;;9.67;3.53;;;12.70;78.60;;;;;;5086211;28;20526;-64
2023/12/10 07:28:10;;;;;;;15.13;3.10;;;12.70;78.90;;;;;;5094666;28;20522;-65
2023/12/10 07:30:37;;;;;;;11.50;2.70;;;12.70;78.70;;;;;;5085633;28;20575;-65
2023/12/10 07:33:04;;;;;;;11.00;3.43;;;12.60;78.40;;;;;;5088466;28;20991;-65
2023/12/10 07:35:32;;;;;;;14.50;2.67;;;12.70;78.90;;;;;;5085523;28;20530;-65
2023/12/10 07:37:59;;;;;;;11.13;3.50;;;12.80;78.50;;;;;;5076536;28;20444;-65
2023/12/10 07:40:26;;;;;;;8.03;3.10;;;12.80;78.90;;;;;;5090661;28;20478;-65
2023/12/10 07:42:53;;;;;;;9.37;2.90;;;12.80;78.80;;;;;;5083874;28;20537;-64
2023/12/10 07:45:20;;;;;;;10.33;3.50;;;12.80;79.10;;;;;;5089020;28;20485;-64
2023/12/10 07:47:47;;;;;;;7.63;2.60;;;12.90;79.00;;;;;;5077669;28;20993;-64
2023/12/10 07:50:14;;;;;;;10.83;3.07;;;13.00;78.90;;;;;;5087570;28;20545;-64
2023/12/10 07:52:42;;;;;;;12.50;3.37;;;13.00;78.70;;;;;;5063951;28;20801;-64
2023/12/10 07:55:09;;;;;;;15.20;3.43;;;13.00;78.90;;;;;;5073594;28;20590;-64
2023/12/10 07:57:36;;;;;;;11.27;3.33;;;13.00;79.00;;;;;;5076111;28;20625;-64
2023/12/10 08:00:06;;;;;;;11.57;3.53;;;13.00;78.80;;;;;;5074456;28;20987;-64
2023/12/10 08:02:34;;;;;;;9.73;3.53;;;13.10;78.90;;;;;;5078372;28;20529;-64
2023/12/10 08:05:01;;;;;;;12.73;3.13;;;13.00;79.10;;;;;;5090883;28;20918;-64
2023/12/10 08:07:32;;;;;;;13.27;3.47;;;13.00;79.50;;;;;;5074756;28;20463;-64
2023/12/10 08:10:00;;;;;;;7.87;3.30;;;13.00;79.10;;;;;;5076784;28;20536;-65
2023/12/10 08:12:27;;;;;;;11.03;3.80;;;12.90;79.70;;;;;;5075851;28;20549;-65
2023/12/10 08:14:54;;;;;;;12.90;3.73;;;13.00;79.50;;;;;;5089034;28;20867;-64
2023/12/10 08:17:21;;;;;;;11.40;2.90;;;12.90;79.50;;;;;;5093929;28;20866;-64
2023/12/10 08:19:48;;;;;;;12.97;3.50;;;12.80;79.90;;;;;;5090960;28;20486;-64
2023/12/10 08:22:15;;;;;;;13.53;3.33;;;12.90;80.10;;;;;;5093105;28;20549;-64
2023/12/10 08:24:43;;;;;;;6.73;2.50;;;12.90;80.00;;;;;;5077167;28;20513;-64
2023/12/10 08:27:11;;;;;;;12.23;3.13;;;12.90;80.00;;;;;;5079343;28;20449;-64
2023/12/10 08:29:38;;;;;;;11.67;3.30;;;12.90;79.50;;;;;;5078234;28;21036;-64
2023/12/10 08:32:06;;;;;;;14.30;3.07;;;12.90;79.90;;;;;;5092469;28;20526;-65
2023/12/10 08:34:32;;;;;;;14.67;3.33;;;13.00;79.60;;;;;;5080941;28;20508;-65
2023/12/10 08:36:59;;;;;;;10.13;3.07;;;13.10;79.30;;;;;;5074132;28;20556;-64
2023/12/10 08:39:26;;;;;;;13.10;3.57;;;13.10;79.20;;;;;;5086760;28;20474;-64
2023/12/10 08:41:53;;;;;;;11.40;3.60;;;13.00;79.20;;;;;;5077252;28;20501;-64
2023/12/10 08:44:22;;;;;;;11.03;3.37;;;13.10;79.30;;;;;;5091061;28;20929;-65
2023/12/10 08:46:49;;;;;;;12.77;3.43;;;13.00;79.10;;;;;;5080159;28;20463;-65
2023/12/10 08:49:17;;;;;;;10.53;3.73;;;12.90;79.20;;;;;;5089209;28;20513;-64
2023/12/10 08:51:44;;;;;;;11.77;3.33;;;12.90;79.80;;;;;;5092875;28;20474;-65
2023/12/10 08:54:11;;;;;;;14.30;3.90;;;12.90;79.60;;;;;;5088950;28;20446;-64
2023/12/10 08:56:38;;;;;;;12.23;3.30;;;12.90;79.70;;;;;;5089106;28;20914;-65
2023/12/10 08:59:06;;;;;;;14.57;3.60;;;13.00;79.50;;;;;;5078392;28;20546;-65
2023/12/10 09:01:35;;;;;;;9.57;3.27;;;13.00;79.40;;;;;;5093062;28;20537;-63
2023/12/10 09:04:03;;;;;;;8.73;2.90;;;13.00;79.60;;;;;;5088019;28;20519;-64
2023/12/10 09:06:30;;;;;;;17.53;4.73;;;13.00;79.70;;;;;;5086597;28;20439;-63
2023/12/10 09:08:57;;;;;;;10.20;3.27;;;13.00;79.70;;;;;;5084852;28;20446;-65
2023/12/10 09:11:24;;;;;;;12.70;3.60;;;12.90;79.60;;;;;;5091013;28;20474;-65
2023/12/10 09:13:51;;;;;;;14.57;3.53;;;13.00;79.80;;;;;;5082764;28;20522;-64
2023/12/10 09:16:20;;;;;;;15.60;4.23;;;12.90;79.40;;;;;;5089887;28;20481;-64
2023/12/10 09:18:48;;;;;;;12.73;3.20;;;13.00;79.50;;;;;;5089412;28;20525;-64
2023/12/10 09:21:15;;;;;;;11.07;3.20;;;13.10;79.20;;;;;;5084826;28;20443;-63
2023/12/10 09:23:43;;;;;;;11.77;3.93;;;13.20;79.20;;;;;;5075366;28;20540;-63
2023/12/10 09:26:12;;;;;;;12.43;2.93;;;13.20;79.10;;;;;;5090885;28;20864;-63
2023/12/10 09:28:39;;;;;;;10.30;3.10;;;13.30;78.70;;;;;;5078884;28;20447;-63
2023/12/10 09:31:06;;;;;;;12.33;3.20;;;13.40;78.60;;;;;;5086802;28;20545;-64
2023/12/10 09:33:35;;;;;;;10.13;3.27;;;13.50;78.70;;;;;;5084227;28;20490;-64
2023/12/10 09:36:04;;;;;;;11.13;2.87;;;13.50;78.10;;;;;;5092610;28;20439;-64
2023/12/10 09:38:31;;;;;;;14.30;4.10;;;13.50;77.60;;;;;;5082364;28;20501;-64
2023/12/10 09:40:57;;;;;;;11.97;3.23;;;13.50;78.40;;;;;;5083710;28;20919;-63
2023/12/10 09:43:24;;;;;;;8.33;2.57;;;13.60;78.00;;;;;;5076756;28;20478;-69
2023/12/10 09:45:51;;;;;;;9.40;3.07;;;13.60;77.80;;;;;;5076478;28;20890;-66
2023/12/10 09:48:18;;;;;;;8.43;2.73;;;13.60;77.70;;;;;;5084217;28;20493;-69
2023/12/10 09:50:45;;;;;;;15.30;4.03;;;13.60;78.50;;;;;;5062641;28;20530;-68
2023/12/10 09:53:14;;;;;;;9.50;4.03;;;13.50;78.00;;;;;;5071658;28;20531;-67
2023/12/10 09:55:41;;;;;;;11.50;4.93;;;13.50;78.20;;;;;;5086460;28;20442;-65
2023/12/10 09:58:10;;;;;;;10.63;3.23;;;13.50;78.50;;;;;;5089192;28;20993;-65
2023/12/10 10:00:37;;;;;;;11.40;2.93;;;13.40;78.60;;;;;;5073855;28;20450;-64
2023/12/10 10:03:05;;;;;;;12.83;3.60;;;13.40;78.30;;;;;;5072506;28;20455;-64
2023/12/10 10:05:34;;;;;;;9.27;2.60;;;13.30;78.40;;;;;;5087989;28;20945;-64
2023/12/10 10:08:01;;;;;;;14.37;3.83;;;13.50;78.70;;;;;;5090102;28;20503;-64
2023/12/10 10:10:31;;;;;;;14.77;3.27;;;13.50;78.40;;;;;;5091950;28;20465;-65
2023/12/10 10:12:59;;;;;;;13.20;3.50;;;13.60;79.20;;;;;;5089127;28;20494;-64
2023/12/10 10:15:27;;;;;;;14.50;4.20;;;13.50;79.70;;;;;;5075982;28;20471;-64
2023/12/10 10:17:55;;;;;;;12.97;3.87;;;13.50;80.10;;;;;;5085581;28;20812;-64
2023/12/10 10:20:23;;;;;;;14.27;3.63;;;13.70;80.80;;;;;;5091976;28;20504;-64
2023/12/10 10:22:50;;;;;;;10.20;3.17;;;13.70;80.20;;;;;;5085735;28;20523;-65
2023/12/10 10:25:18;;;;;;;12.43;3.60;;;13.40;79.80;;;;;;5071517;28;20487;-64
2023/12/10 10:27:46;;;;;;;9.10;3.00;;;13.50;81.00;;;;;;5076345;28;20550;-64
2023/12/10 10:30:14;;;;;;;11.77;3.00;;;13.50;81.20;;;;;;5087074;28;20557;-64
2023/12/10 10:32:41;;;;;;;12.33;4.10;;;13.50;81.60;;;;;;5090080;28;20504;-64
2023/12/10 10:35:09;;;;;;;12.43;2.90;;;13.50;80.90;;;;;;5073346;28;20845;-65
2023/12/10 10:37:36;;;;;;;10.73;3.10;;;13.60;80.80;;;;;;5072735;28;20919;-65
2023/12/10 10:40:04;;;;;;;10.13;2.97;;;13.60;80.20;;;;;;5076745;28;21019;-65
2023/12/10 10:42:31;;;;;;;9.30;3.17;;;13.60;79.40;;;;;;5090685;28;20439;-64
2023/12/10 10:45:00;;;;;;;12.43;3.23;;;13.50;79.60;;;;;;5084889;28;20569;-63
2023/12/10 10:47:29;;;;;;;10.97;3.07;;;13.50;79.30;;;;;;5081438;28;20440;-64
2023/12/10 10:49:58;;;;;;;13.03;2.67;;;13.60;79.80;;;;;;5076418;28;20538;-64
2023/12/10 10:52:27;;;;;;;9.40;2.87;;;13.70;79.70;;;;;;5032585;28;20526;-64
2023/12/10 10:54:55;;;;;;;13.77;3.27;;;13.70;78.70;;;;;;5085174;28;20829;-64
2023/12/10 10:57:29;;;;;;;14.13;3.83;;;14.00;79.20;;;;;;5090023;28;20840;-65
2023/12/10 10:59:57;;;;;;;8.20;3.03;;;14.10;78.20;;;;;;5077335;28;20851;-65
2023/12/10 11:02:25;;;;;;;8.07;3.27;;;14.10;78.40;;;;;;5091465;28;20528;-65
2023/12/10 11:04:52;;;;;;;10.37;3.20;;;14.00;77.90;;;;;;5076319;28;20482;-65
2023/12/10 11:07:21;;;;;;;9.93;2.80;;;13.90;78.60;;;;;;5090017;28;20530;-65
2023/12/10 11:09:58;;;;;;;11.73;3.37;;;13.70;78.40;;;;;;5081542;28;20861;-64
2023/12/10 11:12:45;;;;;;;8.63;2.83;;;13.70;78.90;;;;;;5094637;28;20499;-64
2023/12/10 11:15:24;;;;;;;11.70;3.50;;;13.70;78.90;;;;;;5093009;28;20793;-64
2023/12/10 11:17:54;;;;;;;13.20;2.90;;;13.90;79.40;;;;;;5086187;28;20522;-64
2023/12/10 11:20:34;;;;;;;9.63;3.03;;;13.90;78.50;;;;;;5077697;28;20486;-64
2023/12/10 11:23:03;;;;;;;7.80;2.77;;;14.00;78.30;;;;;;5079228;28;20935;-64
2023/12/10 11:25:31;;;;;;;11.13;3.27;;;14.10;77.70;;;;;;5041858;28;20493;-64
2023/12/10 11:27:58;;;;;;;12.07;3.20;;;14.10;78.20;;;;;;5087957;28;20526;-64
2023/12/10 11:30:26;;;;;;;11.83;3.43;;;14.20;76.90;;;;;;5075456;28;20463;-64
2023/12/10 11:32:55;;;;;;;9.23;3.23;;;14.10;76.80;;;;;;5080137;28;20446;-64
2023/12/10 11:35:22;;;;;;;8.93;2.80;;;14.10;77.20;;;;;;5082439;28;20470;-64
2023/12/10 11:37:48;;;;;;;8.87;2.87;;;13.90;76.80;;;;;;5082327;28;20447;-64
2023/12/10 11:40:15;;;;;;;8.47;2.53;;;14.00;77.90;;;;;;5087254;28;20531;-64
2023/12/10 11:42:43;;;;;;;11.37;3.53;;;14.00;76.70;;;;;;5092604;28;20834;-64
2023/12/10 11:45:13;;;;;;;15.27;3.03;;;13.90;76.50;;;;;;5091042;28;20966;-64
2023/12/10 11:47:42;;;;;;;13.47;3.07;;;14.00;76.80;;;;;;5074966;28;20521;-64
2023/12/10 11:50:11;;;;;;;12.13;3.23;;;14.00;77.40;;;;;;5074145;28;20447;-64
2023/12/10 11:52:38;;;;;;;10.77;2.83;;;14.00;76.70;;;;;;5074516;28;20542;-64
2023/12/10 11:55:08;;;;;;;10.93;3.00;;;14.00;76.70;;;;;;5051658;28;20442;-64
2023/12/10 11:57:37;;;;;;;11.10;2.97;;;14.10;76.80;;;;;;5094710;28;20448;-64
2023/12/10 12:00:06;;;;;;;12.30;3.47;;;14.10;76.10;;;;;;5087137;28;20467;-64
2023/12/10 12:02:34;;;;;;;8.93;2.50;;;14.10;76.80;;;;;;5085216;28;20929;-63
2023/12/10 12:05:02;;;;;;;11.83;3.77;;;14.10;76.50;;;;;;5095264;28;20579;-64
2023/12/10 12:07:30;;;;;;;6.67;3.07;;;14.10;76.20;;;;;;5093991;28;20542;-64
2023/12/10 12:09:57;;;;;;;10.40;3.03;;;14.10;76.30;;;;;;5094519;28;20467;-64
2023/12/10 12:12:24;;;;;;;9.87;3.07;;;14.00;75.50;;;;;;5077649;28;20455;-64
2023/12/10 12:14:53;;;;;;;10.63;2.90;;;13.90;75.60;;;;;;5074270;28;20527;-64
2023/12/10 12:17:21;;;;;;;6.07;2.50;;;14.00;76.70;;;;;;5074296;28;20985;-65
2023/12/10 12:19:48;;;;;;;10.87;2.73;;;14.00;75.90;;;;;;5074101;28;20513;-64
2023/12/10 12:22:15;;;;;;;7.23;3.60;;;14.00;75.50;;;;;;5080571;28;20565;-64
2023/12/10 12:24:44;;;;;;;8.20;2.97;;;14.00;75.50;;;;;;5094084;28;20478;-64
2023/12/10 12:27:11;;;;;;;7.57;3.20;;;14.10;75.70;;;;;;5088373;28;20446;-64
2023/12/10 12:29:39;;;;;;;10.47;3.53;;;14.10;75.40;;;;;;5037246;28;20528;-64
2023/12/10 12:32:06;;;;;;;6.20;2.40;;;14.10;75.70;;;;;;5094043;28;20453;-64
2023/12/10 12:34:33;;;;;;;10.87;2.90;;;14.10;75.70;;;;;;5093359;28;20502;-64
2023/12/10 12:37:00;;;;;;;9.90;3.30;;;14.10;75.40;;;;;;5081016;28;20532;-63
2023/12/10 12:39:27;;;;;;;7.60;2.83;;;14.20;75.60;;;;;;5094344;28;20470;-64